Kathryn B. — WDE2619 — position and weather

sailwx.info

Track history (hours):
 
Tides and Currents Weather Stations Pressure Air Temp Water Temp Dewpoint Dewpoint Depression Visibility Wind Speed Wind Dir Waves Ship Positions

Kathryn B.

Owner: Bernert Barge Lines, Oregon City, OR. More information available from US FCC via Universal Licensing System and Coast Guard Vessel Documentation Center.

Last reported at 2017-Oct-19 23:30 UTC. Time now 2017-Oct-19 23:32 UTC.
Position N 45°33' W 122°43'.

Length 34 m; draft 2.1 m.

Type: Towing. MMSI: 2421136.

Date/timePositionNaut miles runAvg speedWind from/ knotsBaromVisibWave heightAir tempDewpointWater temp
2017-Oct-19 23:30N 45°33' W 122°43'0 0.0
2017-Oct-19 23:00N 45°33' W 122°43'0 0.0
2017-Oct-19 22:30N 45°33' W 122°43'0 0.0
2017-Oct-19 22:00N 45°33' W 122°43'0 0.0
2017-Oct-19 21:30N 45°33' W 122°43'0 0.0
2017-Oct-19 21:00N 45°33' W 122°43'0 0.0
2017-Oct-19 20:30N 45°33' W 122°43'0 0.0
2017-Oct-19 20:00N 45°33' W 122°43'0 0.0
2017-Oct-19 19:31N 45°33' W 122°43'0 0.1
2017-Oct-19 19:00N 45°33' W 122°43'4 8.2
2017-Oct-19 18:30N 45°36' W 122°47'4 8.2
2017-Oct-19 18:00N 45°40' W 122°46'4 8.3
2017-Oct-19 17:31N 45°45' W 122°46'4 8.0
2017-Oct-19 17:00N 45°48' W 122°47'4 7.8
2017-Oct-19 16:30N 45°52' W 122°47'4 7.5
2017-Oct-19 16:00N 45°56' W 122°48'4 7.4
2017-Oct-19 15:30N 45°59' W 122°51'4 7.1
2017-Oct-19 15:00N 46°02' W 122°53'3 6.8
2017-Oct-19 14:30N 46°05' W 122°55'1 0.9
2017-Oct-19 13:52N 46°06' W 122°56'0 1.4
2017-Oct-19 13:31N 46°05' W 122°56'2 4.1
2017-Oct-19 13:01N 46°07' W 122°58'0 0.8
2017-Oct-19 12:30N 46°07' W 122°58'0 0.8
2017-Oct-19 12:00N 46°07' W 122°58'0 0.8
2017-Oct-19 11:31N 46°07' W 122°58'0 0.2
2017-Oct-19 11:00N 46°07' W 122°58'1 1.7
2017-Oct-19 10:30N 46°06' W 122°58'2 3.4
2017-Oct-19 09:57N 46°05' W 122°55'0 0.4
2017-Oct-19 09:30N 46°05' W 122°55'2 4.3
2017-Oct-19 09:00N 46°04' W 122°53'3 5.7
2017-Oct-19 08:30N 46°01' W 122°52'3 6.3
2017-Oct-19 08:00N 45°58' W 122°50'3 6.7
2017-Oct-19 07:30N 45°55' W 122°49'4 7.2
2017-Oct-19 07:00N 45°51' W 122°47'3 6.8
2017-Oct-19 06:31N 45°48' W 122°47'3 6.9
2017-Oct-19 06:01N 45°45' W 122°46'3 6.9
2017-Oct-19 05:30N 45°41' W 122°46'4 5.9
2017-Oct-19 04:51N 45°38' W 122°43'2 6.7
2017-Oct-19 04:30N 45°37' W 122°40'3 6.5
2017-Oct-19 04:00N 45°36' W 122°36'4 6.4
2017-Oct-19 03:27N 45°35' W 122°31'3 6.2
2017-Oct-19 03:00N 45°34' W 122°27'3 5.8
2017-Oct-19 02:29N 45°35' W 122°23'3 5.6
2017-Oct-19 01:59N 45°33' W 122°19'3 5.7
2017-Oct-19 01:31N 45°33' W 122°16'3 5.8
2017-Oct-19 01:00N 45°34' W 122°12'3 5.7
2017-Oct-19 00:29N 45°35' W 122°08'3 5.8
2017-Oct-18 23:58N 45°36' W 122°04'  
2017-Oct-16 05:10N 45°42' W 121°51'9 3.6
2017-Oct-16 02:47N 45°37' W 122°01'2 5.1
2017-Oct-16 02:29N 45°36' W 122°03'3 6.0
2017-Oct-16 01:56N 45°35' W 122°07'3 5.9
2017-Oct-16 01:30N 45°35' W 122°11'3 5.6
2017-Oct-16 01:00N 45°33' W 122°14'3 5.5
2017-Oct-16 00:30N 45°33' W 122°18'3 5.6
2017-Oct-16 00:00N 45°34' W 122°21'3 5.6
2017-Oct-15 23:30N 45°34' W 122°25'3 5.7
2017-Oct-15 23:00N 45°35' W 122°29'3 6.2
2017-Oct-15 22:30N 45°36' W 122°33'3 6.4
2017-Oct-15 22:00N 45°36' W 122°38'3 6.3
2017-Oct-15 21:30N 45°38' W 122°42'3 5.5
2017-Oct-15 21:00N 45°39' W 122°45'4 6.9
2017-Oct-15 20:30N 45°43' W 122°46'4 7.3
2017-Oct-15 20:00N 45°46' W 122°46'4 6.9
2017-Oct-15 19:24N 45°50' W 122°47'3 6.8
2017-Oct-15 19:00N 45°53' W 122°48'3 6.8
2017-Oct-15 18:31N 45°56' W 122°48'3 6.7
2017-Oct-15 18:01N 45°59' W 122°51'3 6.4
2017-Oct-15 17:30N 46°02' W 122°53'3 6.1
2017-Oct-15 17:00N 46°05' W 122°55'3 5.9
2017-Oct-15 16:30N 46°07' W 122°58'0 0.6
2017-Oct-15 16:00N 46°07' W 122°58'0 0.0
2017-Oct-15 15:31N 46°07' W 122°58'0 0.0
2017-Oct-15 15:00N 46°07' W 122°58'2 1.9
2017-Oct-15 13:54N 46°05' W 122°56'  
Track history (hours):
 
Tides and Currents Weather Stations Pressure Air Temp Water Temp Dewpoint Dewpoint Depression Visibility Wind Speed Wind Dir Waves Ship Positions

Kathryn B.

Owner: Bernert Barge Lines, Oregon City, OR. More information available from US FCC via Universal Licensing System and Coast Guard Vessel Documentation Center.

Last reported at 2017-Oct-19 23:30 UTC. Time now 2017-Oct-19 23:32 UTC.
Position N 45°33' W 122°43'.

Length 34 m; draft 2.1 m.

Type: Towing. MMSI: 2421136.

Date/timePositionNaut miles runAvg speedWind from/ knotsBaromVisibWave heightAir tempDewpointWater temp
2017-Oct-19 23:30N 45°33' W 122°43'0 0.0
2017-Oct-19 23:00N 45°33' W 122°43'0 0.0
2017-Oct-19 22:30N 45°33' W 122°43'0 0.0
2017-Oct-19 22:00N 45°33' W 122°43'0 0.0
2017-Oct-19 21:30N 45°33' W 122°43'0 0.0
2017-Oct-19 21:00N 45°33' W 122°43'0 0.0
2017-Oct-19 20:30N 45°33' W 122°43'0 0.0
2017-Oct-19 20:00N 45°33' W 122°43'0 0.0
2017-Oct-19 19:31N 45°33' W 122°43'0 0.1
2017-Oct-19 19:00N 45°33' W 122°43'4 8.2
2017-Oct-19 18:30N 45°36' W 122°47'4 8.2
2017-Oct-19 18:00N 45°40' W 122°46'4 8.3
2017-Oct-19 17:31N 45°45' W 122°46'4 8.0
2017-Oct-19 17:00N 45°48' W 122°47'4 7.8
2017-Oct-19 16:30N 45°52' W 122°47'4 7.5
2017-Oct-19 16:00N 45°56' W 122°48'4 7.4
2017-Oct-19 15:30N 45°59' W 122°51'4 7.1
2017-Oct-19 15:00N 46°02' W 122°53'3 6.8
2017-Oct-19 14:30N 46°05' W 122°55'1 0.9
2017-Oct-19 13:52N 46°06' W 122°56'0 1.4
2017-Oct-19 13:31N 46°05' W 122°56'2 4.1
2017-Oct-19 13:01N 46°07' W 122°58'0 0.8
2017-Oct-19 12:30N 46°07' W 122°58'0 0.8
2017-Oct-19 12:00N 46°07' W 122°58'0 0.8
2017-Oct-19 11:31N 46°07' W 122°58'0 0.2
2017-Oct-19 11:00N 46°07' W 122°58'1 1.7
2017-Oct-19 10:30N 46°06' W 122°58'2 3.4
2017-Oct-19 09:57N 46°05' W 122°55'0 0.4
2017-Oct-19 09:30N 46°05' W 122°55'2 4.3
2017-Oct-19 09:00N 46°04' W 122°53'3 5.7
2017-Oct-19 08:30N 46°01' W 122°52'3 6.3
2017-Oct-19 08:00N 45°58' W 122°50'3 6.7
2017-Oct-19 07:30N 45°55' W 122°49'4 7.2
2017-Oct-19 07:00N 45°51' W 122°47'3 6.8
2017-Oct-19 06:31N 45°48' W 122°47'3 6.9
2017-Oct-19 06:01N 45°45' W 122°46'3 6.9
2017-Oct-19 05:30N 45°41' W 122°46'4 5.9
2017-Oct-19 04:51N 45°38' W 122°43'2 6.7
2017-Oct-19 04:30N 45°37' W 122°40'3 6.5
2017-Oct-19 04:00N 45°36' W 122°36'4 6.4
2017-Oct-19 03:27N 45°35' W 122°31'3 6.2
2017-Oct-19 03:00N 45°34' W 122°27'3 5.8
2017-Oct-19 02:29N 45°35' W 122°23'3 5.6
2017-Oct-19 01:59N 45°33' W 122°19'3 5.7
2017-Oct-19 01:31N 45°33' W 122°16'3 5.8
2017-Oct-19 01:00N 45°34' W 122°12'3 5.7
2017-Oct-19 00:29N 45°35' W 122°08'3 5.8
2017-Oct-18 23:58N 45°36' W 122°04'  
2017-Oct-16 05:10N 45°42' W 121°51'9 3.6
2017-Oct-16 02:47N 45°37' W 122°01'2 5.1
2017-Oct-16 02:29N 45°36' W 122°03'3 6.0
2017-Oct-16 01:56N 45°35' W 122°07'3 5.9
2017-Oct-16 01:30N 45°35' W 122°11'3 5.6
2017-Oct-16 01:00N 45°33' W 122°14'3 5.5
2017-Oct-16 00:30N 45°33' W 122°18'3 5.6
2017-Oct-16 00:00N 45°34' W 122°21'3 5.6
2017-Oct-15 23:30N 45°34' W 122°25'3 5.7
2017-Oct-15 23:00N 45°35' W 122°29'3 6.2
2017-Oct-15 22:30N 45°36' W 122°33'3 6.4
2017-Oct-15 22:00N 45°36' W 122°38'3 6.3
2017-Oct-15 21:30N 45°38' W 122°42'3 5.5
2017-Oct-15 21:00N 45°39' W 122°45'4 6.9
2017-Oct-15 20:30N 45°43' W 122°46'4 7.3
2017-Oct-15 20:00N 45°46' W 122°46'4 6.9
2017-Oct-15 19:24N 45°50' W 122°47'3 6.8
2017-Oct-15 19:00N 45°53' W 122°48'3 6.8
2017-Oct-15 18:31N 45°56' W 122°48'3 6.7
2017-Oct-15 18:01N 45°59' W 122°51'3 6.4
2017-Oct-15 17:30N 46°02' W 122°53'3 6.1
2017-Oct-15 17:00N 46°05' W 122°55'3 5.9
2017-Oct-15 16:30N 46°07' W 122°58'0 0.6
2017-Oct-15 16:00N 46°07' W 122°58'0 0.0
2017-Oct-15 15:31N 46°07' W 122°58'0 0.0
2017-Oct-15 15:00N 46°07' W 122°58'2 1.9
2017-Oct-15 13:54N 46°05' W 122°56'  

Dump ship's entire track history